sensor_id;sensor_type;location;lat;lon;timestamp;temperature;humidity
71304;DHT22;59091;47.446;19.148;2022-09-06T00:01:41;21.25;56.84
71304;DHT22;59091;47.446;19.148;2022-09-06T00:04:08;21.31;56.27
71304;DHT22;59091;47.446;19.148;2022-09-06T00:06:34;21.28;56.32
71304;DHT22;59091;47.446;19.148;2022-09-06T00:08:59;21.28;56.26
71304;DHT22;59091;47.446;19.148;2022-09-06T00:11:25;21.25;56.78
71304;DHT22;59091;47.446;19.148;2022-09-06T00:13:50;21.20;56.05
71304;DHT22;59091;47.446;19.148;2022-09-06T00:16:19;21.12;56.28
71304;DHT22;59091;47.446;19.148;2022-09-06T00:18:45;21.14;57.13
71304;DHT22;59091;47.446;19.148;2022-09-06T00:21:25;21.05;55.56
71304;DHT22;59091;47.446;19.148;2022-09-06T00:23:52;20.98;56.52
71304;DHT22;59091;47.446;19.148;2022-09-06T00:26:18;20.92;57.13
71304;DHT22;59091;47.446;19.148;2022-09-06T00:28:44;20.91;56.00
71304;DHT22;59091;47.446;19.148;2022-09-06T00:31:29;20.85;56.45
71304;DHT22;59091;47.446;19.148;2022-09-06T00:33:55;20.88;58.15
71304;DHT22;59091;47.446;19.148;2022-09-06T00:36:21;20.92;56.85
71304;DHT22;59091;47.446;19.148;2022-09-06T00:38:46;20.80;54.79
71304;DHT22;59091;47.446;19.148;2022-09-06T00:41:13;20.80;55.75
71304;DHT22;59091;47.446;19.148;2022-09-06T00:43:40;20.84;56.20
71304;DHT22;59091;47.446;19.148;2022-09-06T00:46:07;20.80;56.94
71304;DHT22;59091;47.446;19.148;2022-09-06T00:48:34;20.91;56.74
71304;DHT22;59091;47.446;19.148;2022-09-06T00:51:01;20.95;56.03
71304;DHT22;59091;47.446;19.148;2022-09-06T00:53:29;20.92;56.71
71304;DHT22;59091;47.446;19.148;2022-09-06T00:55:55;20.95;57.41
71304;DHT22;59091;47.446;19.148;2022-09-06T00:58:21;20.97;57.08
71304;DHT22;59091;47.446;19.148;2022-09-06T01:00:47;20.97;56.82
71304;DHT22;59091;47.446;19.148;2022-09-06T01:03:12;20.88;56.82
71304;DHT22;59091;47.446;19.148;2022-09-06T01:05:50;20.83;56.98
71304;DHT22;59091;47.446;19.148;2022-09-06T01:11:25;20.61;56.27
71304;DHT22;59091;47.446;19.148;2022-09-06T01:14:09;20.57;55.51
71304;DHT22;59091;47.446;19.148;2022-09-06T01:16:44;20.51;55.55
71304;DHT22;59091;47.446;19.148;2022-09-06T01:30:59;20.51;57.27
71304;DHT22;59091;47.446;19.148;2022-09-06T01:36:04;20.66;57.89
71304;DHT22;59091;47.446;19.148;2022-09-06T01:38:32;20.67;57.54
71304;DHT22;59091;47.446;19.148;2022-09-06T01:40:58;20.61;56.89
71304;DHT22;59091;47.446;19.148;2022-09-06T01:43:32;20.69;56.70
71304;DHT22;59091;47.446;19.148;2022-09-06T01:46:40;20.56;55.22
71304;DHT22;59091;47.446;19.148;2022-09-06T01:49:17;20.51;55.48
71304;DHT22;59091;47.446;19.148;2022-09-06T01:52:12;20.50;55.45
71304;DHT22;59091;47.446;19.148;2022-09-06T01:57:43;20.49;55.74
71304;DHT22;59091;47.446;19.148;2022-09-06T02:00:16;20.60;56.22
71304;DHT22;59091;47.446;19.148;2022-09-06T02:07:46;20.46;56.26
71304;DHT22;59091;47.446;19.148;2022-09-06T02:10:35;20.46;55.77
71304;DHT22;59091;47.446;19.148;2022-09-06T02:13:04;20.28;56.20
71304;DHT22;59091;47.446;19.148;2022-09-06T02:15:36;20.20;56.35
71304;DHT22;59091;47.446;19.148;2022-09-06T02:18:12;20.13;56.28
71304;DHT22;59091;47.446;19.148;2022-09-06T02:20:46;20.09;56.39
71304;DHT22;59091;47.446;19.148;2022-09-06T02:23:14;20.20;57.21
71304;DHT22;59091;47.446;19.148;2022-09-06T02:25:45;20.16;56.23
71304;DHT22;59091;47.446;19.148;2022-09-06T02:28:12;20.06;57.08
71304;DHT22;59091;47.446;19.148;2022-09-06T02:30:41;20.28;57.97
71304;DHT22;59091;47.446;19.148;2022-09-06T02:33:13;20.34;56.41
71304;DHT22;59091;47.446;19.148;2022-09-06T02:35:51;20.41;57.71
71304;DHT22;59091;47.446;19.148;2022-09-06T02:38:20;20.40;56.75
71304;DHT22;59091;47.446;19.148;2022-09-06T02:40:47;20.39;56.84
71304;DHT22;59091;47.446;19.148;2022-09-06T02:43:13;20.49;56.72
71304;DHT22;59091;47.446;19.148;2022-09-06T02:45:39;20.50;56.18
71304;DHT22;59091;47.446;19.148;2022-09-06T02:48:04;20.46;55.80
71304;DHT22;59091;47.446;19.148;2022-09-06T02:50:29;20.36;53.14
71304;DHT22;59091;47.446;19.148;2022-09-06T02:53:09;20.26;53.92
71304;DHT22;59091;47.446;19.148;2022-09-06T02:55:36;20.22;54.15
71304;DHT22;59091;47.446;19.148;2022-09-06T02:58:03;20.12;53.92
71304;DHT22;59091;47.446;19.148;2022-09-06T03:00:29;20.09;54.56
71304;DHT22;59091;47.446;19.148;2022-09-06T03:02:55;20.08;54.69
71304;DHT22;59091;47.446;19.148;2022-09-06T03:05:22;20.19;55.79
71304;DHT22;59091;47.446;19.148;2022-09-06T03:07:48;20.20;55.78
71304;DHT22;59091;47.446;19.148;2022-09-06T03:10:13;20.16;54.00
71304;DHT22;59091;47.446;19.148;2022-09-06T03:12:41;20.13;54.97
71304;DHT22;59091;47.446;19.148;2022-09-06T03:15:07;20.12;55.66
71304;DHT22;59091;47.446;19.148;2022-09-06T03:17:33;20.04;53.92
71304;DHT22;59091;47.446;19.148;2022-09-06T03:19:58;20.06;55.12
71304;DHT22;59091;47.446;19.148;2022-09-06T03:22:23;20.06;56.38
71304;DHT22;59091;47.446;19.148;2022-09-06T03:24:49;20.05;56.87
71304;DHT22;59091;47.446;19.148;2022-09-06T03:27:14;20.05;56.99
71304;DHT22;59091;47.446;19.148;2022-09-06T03:29:40;20.04;56.89
71304;DHT22;59091;47.446;19.148;2022-09-06T03:32:05;20.00;57.14
71304;DHT22;59091;47.446;19.148;2022-09-06T03:34:30;19.93;57.01
71304;DHT22;59091;47.446;19.148;2022-09-06T03:36:56;19.91;56.84
71304;DHT22;59091;47.446;19.148;2022-09-06T03:39:21;19.91;56.92
71304;DHT22;59091;47.446;19.148;2022-09-06T03:41:46;19.86;57.65
71304;DHT22;59091;47.446;19.148;2022-09-06T03:44:12;19.78;55.64
71304;DHT22;59091;47.446;19.148;2022-09-06T03:46:37;19.64;55.00
71304;DHT22;59091;47.446;19.148;2022-09-06T03:49:03;19.51;54.85
71304;DHT22;59091;47.446;19.148;2022-09-06T03:51:28;19.35;55.07
71304;DHT22;59091;47.446;19.148;2022-09-06T03:53:54;19.44;56.52
71304;DHT22;59091;47.446;19.148;2022-09-06T03:56:20;19.47;56.89
71304;DHT22;59091;47.446;19.148;2022-09-06T03:58:45;19.46;56.40
71304;DHT22;59091;47.446;19.148;2022-09-06T04:01:11;19.32;55.77
71304;DHT22;59091;47.446;19.148;2022-09-06T04:03:37;19.34;56.38
71304;DHT22;59091;47.446;19.148;2022-09-06T04:06:04;19.24;55.60
71304;DHT22;59091;47.446;19.148;2022-09-06T04:08:32;19.14;55.24
71304;DHT22;59091;47.446;19.148;2022-09-06T04:10:58;19.09;55.41
71304;DHT22;59091;47.446;19.148;2022-09-06T04:13:25;19.20;56.00
71304;DHT22;59091;47.446;19.148;2022-09-06T04:15:51;19.20;56.02
71304;DHT22;59091;47.446;19.148;2022-09-06T04:18:17;19.20;54.86
71304;DHT22;59091;47.446;19.148;2022-09-06T04:20:46;19.17;55.07
71304;DHT22;59091;47.446;19.148;2022-09-06T04:23:12;19.10;54.86
71304;DHT22;59091;47.446;19.148;2022-09-06T04:25:37;19.10;54.80
71304;DHT22;59091;47.446;19.148;2022-09-06T04:28:03;19.13;55.65
71304;DHT22;59091;47.446;19.148;2022-09-06T04:30:28;19.10;54.97
71304;DHT22;59091;47.446;19.148;2022-09-06T04:32:54;19.13;55.34
71304;DHT22;59091;47.446;19.148;2022-09-06T04:35:19;19.21;55.38
71304;DHT22;59091;47.446;19.148;2022-09-06T04:37:44;19.28;55.59
71304;DHT22;59091;47.446;19.148;2022-09-06T04:40:10;19.21;54.59
71304;DHT22;59091;47.446;19.148;2022-09-06T04:42:35;19.26;54.94
71304;DHT22;59091;47.446;19.148;2022-09-06T04:45:01;19.34;54.61
71304;DHT22;59091;47.446;19.148;2022-09-06T04:47:26;19.35;54.23
71304;DHT22;59091;47.446;19.148;2022-09-06T04:49:51;19.38;54.10
71304;DHT22;59091;47.446;19.148;2022-09-06T04:52:18;19.43;53.93
71304;DHT22;59091;47.446;19.148;2022-09-06T04:54:43;19.47;53.69
71304;DHT22;59091;47.446;19.148;2022-09-06T04:57:09;19.57;54.31
71304;DHT22;59091;47.446;19.148;2022-09-06T04:59:35;19.58;53.61
71304;DHT22;59091;47.446;19.148;2022-09-06T05:02:00;19.53;53.15
71304;DHT22;59091;47.446;19.148;2022-09-06T05:04:26;19.50;53.38
71304;DHT22;59091;47.446;19.148;2022-09-06T05:07:05;19.50;54.82
71304;DHT22;59091;47.446;19.148;2022-09-06T05:09:32;19.57;53.36
71304;DHT22;59091;47.446;19.148;2022-09-06T05:11:57;19.47;53.47
71304;DHT22;59091;47.446;19.148;2022-09-06T05:14:24;19.59;53.32
71304;DHT22;59091;47.446;19.148;2022-09-06T05:16:49;19.64;53.45
71304;DHT22;59091;47.446;19.148;2022-09-06T05:19:16;19.53;53.62
71304;DHT22;59091;47.446;19.148;2022-09-06T05:21:41;19.75;53.66
71304;DHT22;59091;47.446;19.148;2022-09-06T05:24:07;19.65;53.36
71304;DHT22;59091;47.446;19.148;2022-09-06T05:26:32;19.82;54.71
71304;DHT22;59091;47.446;19.148;2022-09-06T05:28:58;19.99;53.68
71304;DHT22;59091;47.446;19.148;2022-09-06T05:33:53;20.05;53.13
71304;DHT22;59091;47.446;19.148;2022-09-06T05:36:19;20.10;52.24
71304;DHT22;59091;47.446;19.148;2022-09-06T05:38:44;20.09;51.92
71304;DHT22;59091;47.446;19.148;2022-09-06T05:41:10;20.12;53.87
71304;DHT22;59091;47.446;19.148;2022-09-06T05:43:35;20.29;53.23
71304;DHT22;59091;47.446;19.148;2022-09-06T05:46:00;20.36;52.07
71304;DHT22;59091;47.446;19.148;2022-09-06T05:48:26;20.33;51.60
71304;DHT22;59091;47.446;19.148;2022-09-06T05:51:03;20.32;50.62
71304;DHT22;59091;47.446;19.148;2022-09-06T05:53:36;20.34;51.54
71304;DHT22;59091;47.446;19.148;2022-09-06T05:56:03;20.37;51.22
71304;DHT22;59091;47.446;19.148;2022-09-06T05:58:29;20.43;52.66
71304;DHT22;59091;47.446;19.148;2022-09-06T06:01:14;20.32;49.75
71304;DHT22;59091;47.446;19.148;2022-09-06T06:03:40;20.34;50.44
71304;DHT22;59091;47.446;19.148;2022-09-06T06:06:06;20.39;50.46
71304;DHT22;59091;47.446;19.148;2022-09-06T06:08:31;20.32;49.29
71304;DHT22;59091;47.446;19.148;2022-09-06T06:11:00;20.51;52.19
71304;DHT22;59091;47.446;19.148;2022-09-06T06:13:27;20.51;49.31
71304;DHT22;59091;47.446;19.148;2022-09-06T06:15:54;20.66;52.96
71304;DHT22;59091;47.446;19.148;2022-09-06T06:18:20;20.84;51.29
71304;DHT22;59091;47.446;19.148;2022-09-06T06:20:45;20.81;48.16
71304;DHT22;59091;47.446;19.148;2022-09-06T06:23:13;20.87;47.26
71304;DHT22;59091;47.446;19.148;2022-09-06T06:25:38;20.90;46.83
71304;DHT22;59091;47.446;19.148;2022-09-06T06:28:04;20.97;46.82
71304;DHT22;59091;47.446;19.148;2022-09-06T06:30:29;21.05;48.26
71304;DHT22;59091;47.446;19.148;2022-09-06T06:32:54;21.27;49.61
71304;DHT22;59091;47.446;19.148;2022-09-06T06:35:22;21.45;49.64
71304;DHT22;59091;47.446;19.148;2022-09-06T06:37:48;21.38;46.63
71304;DHT22;59091;47.446;19.148;2022-09-06T06:40:13;21.41;45.82
71304;DHT22;59091;47.446;19.148;2022-09-06T06:42:38;21.42;48.23
71304;DHT22;59091;47.446;19.148;2022-09-06T06:45:04;21.58;48.16
71304;DHT22;59091;47.446;19.148;2022-09-06T06:47:31;21.63;47.90
71304;DHT22;59091;47.446;19.148;2022-09-06T06:49:57;21.66;46.77
71304;DHT22;59091;47.446;19.148;2022-09-06T06:52:22;21.67;45.39
71304;DHT22;59091;47.446;19.148;2022-09-06T06:54:48;21.79;46.59
71304;DHT22;59091;47.446;19.148;2022-09-06T06:57:14;21.88;46.92
71304;DHT22;59091;47.446;19.148;2022-09-06T06:59:39;21.90;45.79
71304;DHT22;59091;47.446;19.148;2022-09-06T07:02:05;21.93;47.57
71304;DHT22;59091;47.446;19.148;2022-09-06T07:04:31;22.10;48.80
71304;DHT22;59091;47.446;19.148;2022-09-06T07:06:56;22.04;44.98
71304;DHT22;59091;47.446;19.148;2022-09-06T07:09:22;22.10;45.61
71304;DHT22;59091;47.446;19.148;2022-09-06T07:11:48;22.29;48.32
71304;DHT22;59091;47.446;19.148;2022-09-06T07:14:16;22.23;44.93
71304;DHT22;59091;47.446;19.148;2022-09-06T07:16:42;22.17;44.91
71304;DHT22;59091;47.446;19.148;2022-09-06T07:19:08;22.25;45.39
71304;DHT22;59091;47.446;19.148;2022-09-06T07:21:33;22.50;47.05
71304;DHT22;59091;47.446;19.148;2022-09-06T07:23:59;22.62;45.44
71304;DHT22;59091;47.446;19.148;2022-09-06T07:26:27;22.78;45.94
71304;DHT22;59091;47.446;19.148;2022-09-06T07:28:54;22.74;45.54
71304;DHT22;59091;47.446;19.148;2022-09-06T07:31:20;22.74;44.18
71304;DHT22;59091;47.446;19.148;2022-09-06T07:33:45;22.98;46.13
71304;DHT22;59091;47.446;19.148;2022-09-06T07:36:11;23.12;45.35
71304;DHT22;59091;47.446;19.148;2022-09-06T07:38:36;23.30;45.89
71304;DHT22;59091;47.446;19.148;2022-09-06T07:41:06;23.34;43.65
71304;DHT22;59091;47.446;19.148;2022-09-06T07:43:32;23.41;44.95
71304;DHT22;59091;47.446;19.148;2022-09-06T07:48:27;23.78;43.16
71304;DHT22;59091;47.446;19.148;2022-09-06T07:50:54;23.98;43.86
71304;DHT22;59091;47.446;19.148;2022-09-06T07:53:19;24.10;41.68
71304;DHT22;59091;47.446;19.148;2022-09-06T07:55:44;24.58;42.73
71304;DHT22;59091;47.446;19.148;2022-09-06T07:58:10;24.71;41.31
71304;DHT22;59091;47.446;19.148;2022-09-06T08:00:35;24.99;40.80
71304;DHT22;59091;47.446;19.148;2022-09-06T08:03:02;25.20;40.89
71304;DHT22;59091;47.446;19.148;2022-09-06T08:05:27;25.47;39.02
71304;DHT22;59091;47.446;19.148;2022-09-06T08:07:53;25.67;39.63
71304;DHT22;59091;47.446;19.148;2022-09-06T08:10:18;26.06;39.55
71304;DHT22;59091;47.446;19.148;2022-09-06T08:12:43;26.18;38.01
71304;DHT22;59091;47.446;19.148;2022-09-06T08:15:09;26.33;39.69
71304;DHT22;59091;47.446;19.148;2022-09-06T08:17:35;26.70;39.43
71304;DHT22;59091;47.446;19.148;2022-09-06T08:20:02;26.63;38.67
71304;DHT22;59091;47.446;19.148;2022-09-06T08:22:31;27.04;38.24
71304;DHT22;59091;47.446;19.148;2022-09-06T08:24:57;27.62;37.58
71304;DHT22;59091;47.446;19.148;2022-09-06T08:27:23;27.23;37.62
71304;DHT22;59091;47.446;19.148;2022-09-06T08:29:48;27.12;38.23
71304;DHT22;59091;47.446;19.148;2022-09-06T08:32:13;27.07;39.16
71304;DHT22;59091;47.446;19.148;2022-09-06T08:34:39;27.48;38.00
71304;DHT22;59091;47.446;19.148;2022-09-06T08:37:04;27.75;37.48
71304;DHT22;59091;47.446;19.148;2022-09-06T08:39:30;27.54;36.77
71304;DHT22;59091;47.446;19.148;2022-09-06T08:41:59;27.33;38.64
71304;DHT22;59091;47.446;19.148;2022-09-06T08:44:39;27.30;36.72
71304;DHT22;59091;47.446;19.148;2022-09-06T08:47:20;27.07;37.20
71304;DHT22;59091;47.446;19.148;2022-09-06T08:50:14;27.04;37.40
71304;DHT22;59091;47.446;19.148;2022-09-06T08:53:01;27.11;38.57
71304;DHT22;59091;47.446;19.148;2022-09-06T09:00:37;27.49;39.54
71304;DHT22;59091;47.446;19.148;2022-09-06T09:03:11;27.28;39.49
71304;DHT22;59091;47.446;19.148;2022-09-06T09:05:39;27.31;38.14
71304;DHT22;59091;47.446;19.148;2022-09-06T09:10:40;28.06;37.19
71304;DHT22;59091;47.446;19.148;2022-09-06T09:13:07;28.09;36.39
71304;DHT22;59091;47.446;19.148;2022-09-06T09:15:34;28.29;36.40
71304;DHT22;59091;47.446;19.148;2022-09-06T09:18:00;28.33;37.83
71304;DHT22;59091;47.446;19.148;2022-09-06T09:20:26;28.54;38.80
71304;DHT22;59091;47.446;19.148;2022-09-06T09:22:51;28.70;36.99
71304;DHT22;59091;47.446;19.148;2022-09-06T09:25:20;28.86;35.93
71304;DHT22;59091;47.446;19.148;2022-09-06T09:27:47;28.75;36.23
71304;DHT22;59091;47.446;19.148;2022-09-06T09:30:14;28.88;36.33
71304;DHT22;59091;47.446;19.148;2022-09-06T09:32:43;28.94;35.69
71304;DHT22;59091;47.446;19.148;2022-09-06T09:40:32;28.78;37.31
71304;DHT22;59091;47.446;19.148;2022-09-06T09:43:15;28.46;36.17
71304;DHT22;59091;47.446;19.148;2022-09-06T09:45:42;28.41;36.39
71304;DHT22;59091;47.446;19.148;2022-09-06T09:48:25;28.32;36.54
71304;DHT22;59091;47.446;19.148;2022-09-06T09:50:51;28.10;37.14
71304;DHT22;59091;47.446;19.148;2022-09-06T09:53:19;27.81;37.96
71304;DHT22;59091;47.446;19.148;2022-09-06T09:55:45;27.88;37.59
71304;DHT22;59091;47.446;19.148;2022-09-06T09:58:19;28.24;37.69
71304;DHT22;59091;47.446;19.148;2022-09-06T10:00:45;28.32;37.13
71304;DHT22;59091;47.446;19.148;2022-09-06T10:03:13;28.33;37.08
71304;DHT22;59091;47.446;19.148;2022-09-06T10:05:40;28.53;37.04
71304;DHT22;59091;47.446;19.148;2022-09-06T10:08:09;28.54;37.77
71304;DHT22;59091;47.446;19.148;2022-09-06T10:10:41;28.36;36.96
71304;DHT22;59091;47.446;19.148;2022-09-06T10:13:18;28.58;36.96
71304;DHT22;59091;47.446;19.148;2022-09-06T10:15:45;28.70;38.33
71304;DHT22;59091;47.446;19.148;2022-09-06T10:20:49;28.64;39.93
71304;DHT22;59091;47.446;19.148;2022-09-06T10:26:11;28.90;38.72
71304;DHT22;59091;47.446;19.148;2022-09-06T10:28:39;28.67;38.11
71304;DHT22;59091;47.446;19.148;2022-09-06T10:36:37;28.97;37.62
71304;DHT22;59091;47.446;19.148;2022-09-06T10:39:27;28.94;38.45
71304;DHT22;59091;47.446;19.148;2022-09-06T10:47:11;29.07;40.08
71304;DHT22;59091;47.446;19.148;2022-09-06T10:49:47;29.25;39.72
71304;DHT22;59091;47.446;19.148;2022-09-06T10:52:19;29.29;39.26
71304;DHT22;59091;47.446;19.148;2022-09-06T10:54:47;29.18;39.51
71304;DHT22;59091;47.446;19.148;2022-09-06T10:57:17;29.22;39.31
71304;DHT22;59091;47.446;19.148;2022-09-06T10:59:54;29.23;37.78
71304;DHT22;59091;47.446;19.148;2022-09-06T11:05:07;29.35;38.41
71304;DHT22;59091;47.446;19.148;2022-09-06T11:07:41;29.42;39.15
71304;DHT22;59091;47.446;19.148;2022-09-06T11:12:58;29.39;37.84
71304;DHT22;59091;47.446;19.148;2022-09-06T11:15:27;29.46;38.56
71304;DHT22;59091;47.446;19.148;2022-09-06T11:28:48;29.60;37.96
71304;DHT22;59091;47.446;19.148;2022-09-06T11:31:26;29.72;37.77
71304;DHT22;59091;47.446;19.148;2022-09-06T11:34:19;29.67;37.12
71304;DHT22;59091;47.446;19.148;2022-09-06T11:36:50;29.43;36.98
71304;DHT22;59091;47.446;19.148;2022-09-06T11:39:28;29.43;36.77
71304;DHT22;59091;47.446;19.148;2022-09-06T11:41:55;29.53;37.05
71304;DHT22;59091;47.446;19.148;2022-09-06T11:52:58;30.07;36.29
71304;DHT22;59091;47.446;19.148;2022-09-06T11:55:39;30.31;37.97
71304;DHT22;59091;47.446;19.148;2022-09-06T11:58:31;30.35;35.22
71304;DHT22;59091;47.446;19.148;2022-09-06T12:06:36;30.79;35.08
71304;DHT22;59091;47.446;19.148;2022-09-06T12:09:00;30.79;34.53
71304;DHT22;59091;47.446;19.148;2022-09-06T12:11:41;30.64;35.33
71304;DHT22;59091;47.446;19.148;2022-09-06T12:14:39;30.52;35.39
71304;DHT22;59091;47.446;19.148;2022-09-06T12:19:54;30.34;35.45
71304;DHT22;59091;47.446;19.148;2022-09-06T12:24:58;30.40;36.44
71304;DHT22;59091;47.446;19.148;2022-09-06T12:30:01;30.64;35.29
71304;DHT22;59091;47.446;19.148;2022-09-06T12:32:35;30.71;35.02
71304;DHT22;59091;47.446;19.148;2022-09-06T12:35:08;30.52;35.21
71304;DHT22;59091;47.446;19.148;2022-09-06T12:37:57;30.48;34.73
71304;DHT22;59091;47.446;19.148;2022-09-06T12:40:26;30.54;35.19
71304;DHT22;59091;47.446;19.148;2022-09-06T12:42:53;30.55;34.84
71304;DHT22;59091;47.446;19.148;2022-09-06T12:45:21;30.44;34.28
71304;DHT22;59091;47.446;19.148;2022-09-06T12:47:47;30.55;34.46
71304;DHT22;59091;47.446;19.148;2022-09-06T12:50:22;30.72;34.41
71304;DHT22;59091;47.446;19.148;2022-09-06T12:52:57;30.72;34.53
71304;DHT22;59091;47.446;19.148;2022-09-06T12:57:56;30.68;34.19
71304;DHT22;59091;47.446;19.148;2022-09-06T13:00:23;30.81;34.00
71304;DHT22;59091;47.446;19.148;2022-09-06T13:05:24;30.95;34.39
71304;DHT22;59091;47.446;19.148;2022-09-06T13:07:53;30.95;34.70
71304;DHT22;59091;47.446;19.148;2022-09-06T13:10:23;30.69;34.56
71304;DHT22;59091;47.446;19.148;2022-09-06T13:12:50;30.71;33.29
71304;DHT22;59091;47.446;19.148;2022-09-06T13:15:24;30.42;33.09
71304;DHT22;59091;47.446;19.148;2022-09-06T13:17:51;30.32;33.47
71304;DHT22;59091;47.446;19.148;2022-09-06T13:22:46;30.49;34.66
71304;DHT22;59091;47.446;19.148;2022-09-06T13:27:47;30.54;33.88
71304;DHT22;59091;47.446;19.148;2022-09-06T13:30:35;30.54;33.73
71304;DHT22;59091;47.446;19.148;2022-09-06T13:33:03;30.54;32.42
71304;DHT22;59091;47.446;19.148;2022-09-06T13:35:32;30.49;32.51
71304;DHT22;59091;47.446;19.148;2022-09-06T13:38:17;30.55;32.91
71304;DHT22;59091;47.446;19.148;2022-09-06T13:40:43;30.64;34.41
71304;DHT22;59091;47.446;19.148;2022-09-06T13:43:12;30.68;33.94
71304;DHT22;59091;47.446;19.148;2022-09-06T13:45:38;30.62;33.59
71304;DHT22;59091;47.446;19.148;2022-09-06T13:48:04;30.58;33.85
71304;DHT22;59091;47.446;19.148;2022-09-06T13:50:30;30.58;34.35
71304;DHT22;59091;47.446;19.148;2022-09-06T13:52:56;30.67;34.48
71304;DHT22;59091;47.446;19.148;2022-09-06T13:55:23;30.62;35.08
71304;DHT22;59091;47.446;19.148;2022-09-06T13:57:52;30.47;35.05
71304;DHT22;59091;47.446;19.148;2022-09-06T14:00:17;30.38;35.49
71304;DHT22;59091;47.446;19.148;2022-09-06T14:02:43;30.34;35.50
71304;DHT22;59091;47.446;19.148;2022-09-06T14:05:08;30.27;35.42
71304;DHT22;59091;47.446;19.148;2022-09-06T14:07:34;30.20;35.66
71304;DHT22;59091;47.446;19.148;2022-09-06T14:09:59;30.01;35.77
71304;DHT22;59091;47.446;19.148;2022-09-06T14:12:26;30.03;35.70
71304;DHT22;59091;47.446;19.148;2022-09-06T14:14:52;29.70;36.17
71304;DHT22;59091;47.446;19.148;2022-09-06T14:17:17;29.80;36.03
71304;DHT22;59091;47.446;19.148;2022-09-06T14:19:42;29.81;36.34
71304;DHT22;59091;47.446;19.148;2022-09-06T14:22:08;29.73;37.05
71304;DHT22;59091;47.446;19.148;2022-09-06T14:24:33;29.43;36.30
71304;DHT22;59091;47.446;19.148;2022-09-06T14:26:59;29.42;36.50
71304;DHT22;59091;47.446;19.148;2022-09-06T14:29:25;29.52;36.74
71304;DHT22;59091;47.446;19.148;2022-09-06T14:31:50;29.50;37.12
71304;DHT22;59091;47.446;19.148;2022-09-06T14:34:16;29.50;36.98
71304;DHT22;59091;47.446;19.148;2022-09-06T14:36:41;29.46;37.28
71304;DHT22;59091;47.446;19.148;2022-09-06T14:39:07;29.36;37.16
71304;DHT22;59091;47.446;19.148;2022-09-06T14:41:32;29.14;37.62
71304;DHT22;59091;47.446;19.148;2022-09-06T14:43:58;28.74;38.10
71304;DHT22;59091;47.446;19.148;2022-09-06T14:46:26;28.78;38.03
71304;DHT22;59091;47.446;19.148;2022-09-06T14:48:57;28.79;38.07
71304;DHT22;59091;47.446;19.148;2022-09-06T14:51:23;28.58;38.53
71304;DHT22;59091;47.446;19.148;2022-09-06T14:53:54;28.26;38.50
71304;DHT22;59091;47.446;19.148;2022-09-06T14:56:21;28.35;38.68
71304;DHT22;59091;47.446;19.148;2022-09-06T14:58:47;28.36;38.56
71304;DHT22;59091;47.446;19.148;2022-09-06T15:01:15;28.36;38.62
71304;DHT22;59091;47.446;19.148;2022-09-06T15:03:46;28.37;38.84
71304;DHT22;59091;47.446;19.148;2022-09-06T15:06:13;28.19;40.00
71304;DHT22;59091;47.446;19.148;2022-09-06T15:08:39;28.05;39.27
71304;DHT22;59091;47.446;19.148;2022-09-06T15:11:05;28.13;39.13
71304;DHT22;59091;47.446;19.148;2022-09-06T15:13:32;28.17;39.12
71304;DHT22;59091;47.446;19.148;2022-09-06T15:15:58;28.13;39.40
71304;DHT22;59091;47.446;19.148;2022-09-06T15:18:23;28.10;39.25
71304;DHT22;59091;47.446;19.148;2022-09-06T15:20:49;28.09;39.43
71304;DHT22;59091;47.446;19.148;2022-09-06T15:23:15;28.06;39.84
71304;DHT22;59091;47.446;19.148;2022-09-06T15:25:50;28.05;39.97
71304;DHT22;59091;47.446;19.148;2022-09-06T15:28:17;28.03;41.83
71304;DHT22;59091;47.446;19.148;2022-09-06T15:30:44;27.92;42.79
71304;DHT22;59091;47.446;19.148;2022-09-06T15:33:10;27.73;43.50
71304;DHT22;59091;47.446;19.148;2022-09-06T15:35:39;27.54;46.70
71304;DHT22;59091;47.446;19.148;2022-09-06T15:38:05;27.34;46.29
71304;DHT22;59091;47.446;19.148;2022-09-06T15:40:30;27.23;48.79
71304;DHT22;59091;47.446;19.148;2022-09-06T15:42:56;26.86;50.50
71304;DHT22;59091;47.446;19.148;2022-09-06T15:45:21;26.59;53.54
71304;DHT22;59091;47.446;19.148;2022-09-06T15:47:47;25.94;54.38
71304;DHT22;59091;47.446;19.148;2022-09-06T15:50:12;25.73;51.51
71304;DHT22;59091;47.446;19.148;2022-09-06T15:52:38;25.60;56.09
71304;DHT22;59091;47.446;19.148;2022-09-06T15:55:04;25.68;57.37
71304;DHT22;59091;47.446;19.148;2022-09-06T15:57:48;25.78;58.47
71304;DHT22;59091;47.446;19.148;2022-09-06T16:00:14;25.75;60.29
71304;DHT22;59091;47.446;19.148;2022-09-06T16:02:41;25.77;59.08
71304;DHT22;59091;47.446;19.148;2022-09-06T16:05:07;25.71;59.29
71304;DHT22;59091;47.446;19.148;2022-09-06T16:07:32;25.68;57.14
71304;DHT22;59091;47.446;19.148;2022-09-06T16:09:58;25.65;60.14
71304;DHT22;59091;47.446;19.148;2022-09-06T16:12:24;25.58;60.49
71304;DHT22;59091;47.446;19.148;2022-09-06T16:14:49;25.50;58.50
71304;DHT22;59091;47.446;19.148;2022-09-06T16:17:15;25.47;60.40
71304;DHT22;59091;47.446;19.148;2022-09-06T16:19:40;25.44;59.90
71304;DHT22;59091;47.446;19.148;2022-09-06T16:22:06;25.38;59.98
71304;DHT22;59091;47.446;19.148;2022-09-06T16:24:31;25.31;60.16
71304;DHT22;59091;47.446;19.148;2022-09-06T16:26:57;25.30;59.10
71304;DHT22;59091;47.446;19.148;2022-09-06T16:29:23;25.19;59.58
71304;DHT22;59091;47.446;19.148;2022-09-06T16:31:48;24.99;59.46
71304;DHT22;59091;47.446;19.148;2022-09-06T16:34:15;24.92;60.05
71304;DHT22;59091;47.446;19.148;2022-09-06T16:36:40;24.54;61.90
71304;DHT22;59091;47.446;19.148;2022-09-06T16:39:07;24.47;62.60
71304;DHT22;59091;47.446;19.148;2022-09-06T16:41:44;24.18;63.43
71304;DHT22;59091;47.446;19.148;2022-09-06T16:44:15;24.20;62.70
71304;DHT22;59091;47.446;19.148;2022-09-06T16:46:45;24.18;60.87
71304;DHT22;59091;47.446;19.148;2022-09-06T16:49:11;24.14;60.65
71304;DHT22;59091;47.446;19.148;2022-09-06T16:51:37;24.10;60.96
71304;DHT22;59091;47.446;19.148;2022-09-06T16:54:02;24.04;60.81
71304;DHT22;59091;47.446;19.148;2022-09-06T16:56:29;24.13;61.21
71304;DHT22;59091;47.446;19.148;2022-09-06T16:58:59;24.11;60.85
71304;DHT22;59091;47.446;19.148;2022-09-06T17:01:26;24.14;60.93
71304;DHT22;59091;47.446;19.148;2022-09-06T17:03:53;24.10;61.37
71304;DHT22;59091;47.446;19.148;2022-09-06T17:06:19;24.05;61.02
71304;DHT22;59091;47.446;19.148;2022-09-06T17:08:45;24.08;60.87
71304;DHT22;59091;47.446;19.148;2022-09-06T17:11:16;24.08;60.89